sensor_id;sensor_type;location;lat;lon;timestamp;pressure;altitude;pressure_sealevel;temperature;humidity
55317;BME280;41178;48.956;8.130;2023-06-24T00:02:54;100576.53;;;19.22;45.87
55317;BME280;41178;48.956;8.130;2023-06-24T00:07:58;100557.91;;;21.14;43.18
55317;BME280;41178;48.956;8.130;2023-06-24T00:13:03;100585.78;;;20.74;44.44
55317;BME280;41178;48.956;8.130;2023-06-24T00:18:05;100661.69;;;19.20;46.11
55317;BME280;41178;48.956;8.130;2023-06-24T00:23:08;100600.53;;;18.22;48.04
55317;BME280;41178;48.956;8.130;2023-06-24T00:28:10;100507.03;;;20.67;44.53
55317;BME280;41178;48.956;8.130;2023-06-24T00:33:12;100549.28;;;20.93;43.95
55317;BME280;41178;48.956;8.130;2023-06-24T00:38:15;100599.47;;;21.21;42.99
55317;BME280;41178;48.956;8.130;2023-06-24T00:43:16;100629.03;;;20.63;43.69
55317;BME280;41178;48.956;8.130;2023-06-24T00:48:19;100614.56;;;20.63;43.69
55317;BME280;41178;48.956;8.130;2023-06-24T00:53:22;100625.00;;;20.66;43.87
55317;BME280;41178;48.956;8.130;2023-06-24T00:58:26;100644.91;;;20.48;43.46
55317;BME280;41178;48.956;8.130;2023-06-24T01:03:28;100609.69;;;18.67;47.25
55317;BME280;41178;48.956;8.130;2023-06-24T01:08:31;100576.78;;;20.73;43.57
55317;BME280;41178;48.956;8.130;2023-06-24T01:13:33;100691.00;;;19.05;45.10
55317;BME280;41178;48.956;8.130;2023-06-24T01:18:43;100619.06;;;20.27;44.01
55317;BME280;41178;48.956;8.130;2023-06-24T01:34:33;100661.91;;;17.50;48.79
55317;BME280;41178;48.956;8.130;2023-06-24T01:40:05;100582.66;;;17.29;49.42
55317;BME280;41178;48.956;8.130;2023-06-24T01:45:12;100579.31;;;17.34;49.10
55317;BME280;41178;48.956;8.130;2023-06-24T01:50:19;100564.75;;;18.07;47.25
55317;BME280;41178;48.956;8.130;2023-06-24T01:55:23;100657.66;;;18.66;45.48
55317;BME280;41178;48.956;8.130;2023-06-24T02:00:26;100608.22;;;17.67;47.75
55317;BME280;41178;48.956;8.130;2023-06-24T02:05:28;100617.63;;;17.17;48.75
55317;BME280;41178;48.956;8.130;2023-06-24T02:10:30;100570.72;;;17.70;47.71
55317;BME280;41178;48.956;8.130;2023-06-24T02:15:33;100621.69;;;16.80;49.01
55317;BME280;41178;48.956;8.130;2023-06-24T02:20:38;100591.56;;;16.90;49.20
55317;BME280;41178;48.956;8.130;2023-06-24T02:25:42;100643.13;;;18.47;46.31
55317;BME280;41178;48.956;8.130;2023-06-24T02:30:45;100577.28;;;19.91;44.22
55317;BME280;41178;48.956;8.130;2023-06-24T02:35:47;100639.97;;;19.71;44.47
55317;BME280;41178;48.956;8.130;2023-06-24T02:40:49;100668.03;;;19.33;45.25
55317;BME280;41178;48.956;8.130;2023-06-24T02:45:53;100712.88;;;18.00;47.14
55317;BME280;41178;48.956;8.130;2023-06-24T02:50:55;100595.44;;;19.72;45.05
55317;BME280;41178;48.956;8.130;2023-06-24T02:55:58;100622.69;;;19.84;44.44
55317;BME280;41178;48.956;8.130;2023-06-24T03:01:01;100628.94;;;19.66;45.22
55317;BME280;41178;48.956;8.130;2023-06-24T03:06:04;100701.75;;;18.87;46.02
55317;BME280;41178;48.956;8.130;2023-06-24T03:11:06;100676.25;;;18.88;45.99
55317;BME280;41178;48.956;8.130;2023-06-24T03:16:07;100672.94;;;18.86;45.82
55317;BME280;41178;48.956;8.130;2023-06-24T03:21:14;100624.22;;;18.72;46.65
55317;BME280;41178;48.956;8.130;2023-06-24T03:26:15;100634.75;;;18.94;46.29
55317;BME280;41178;48.956;8.130;2023-06-24T03:31:17;100637.19;;;19.02;45.97
55317;BME280;41178;48.956;8.130;2023-06-24T03:36:19;100624.41;;;19.09;45.88
55317;BME280;41178;48.956;8.130;2023-06-24T03:41:21;100648.38;;;19.12;45.68
55317;BME280;41178;48.956;8.130;2023-06-24T03:46:23;100643.41;;;19.09;46.16
55317;BME280;41178;48.956;8.130;2023-06-24T03:51:25;100641.84;;;18.56;47.34
55317;BME280;41178;48.956;8.130;2023-06-24T03:56:27;100602.59;;;18.97;46.27
55317;BME280;41178;48.956;8.130;2023-06-24T04:01:28;100610.38;;;18.87;46.75
55317;BME280;41178;48.956;8.130;2023-06-24T04:06:33;100683.34;;;18.50;47.03
55317;BME280;41178;48.956;8.130;2023-06-24T04:11:35;100661.28;;;18.85;46.76
55317;BME280;41178;48.956;8.130;2023-06-24T04:16:37;100619.81;;;19.35;45.98
55317;BME280;41178;48.956;8.130;2023-06-24T04:21:39;100631.56;;;19.29;46.78
55317;BME280;41178;48.956;8.130;2023-06-24T04:26:41;100626.34;;;19.52;46.24
55317;BME280;41178;48.956;8.130;2023-06-24T04:31:42;100655.72;;;19.37;46.35
55317;BME280;41178;48.956;8.130;2023-06-24T04:36:44;100681.53;;;19.14;47.17
55317;BME280;41178;48.956;8.130;2023-06-24T04:41:46;100681.25;;;18.97;47.81
55317;BME280;41178;48.956;8.130;2023-06-24T04:46:48;100764.28;;;16.71;51.12
55317;BME280;41178;48.956;8.130;2023-06-24T04:51:50;100667.50;;;17.95;49.61
55317;BME280;41178;48.956;8.130;2023-06-24T04:56:52;100666.41;;;18.09;49.25
55317;BME280;41178;48.956;8.130;2023-06-24T05:01:56;100664.38;;;18.95;47.42
55317;BME280;41178;48.956;8.130;2023-06-24T05:06:58;100705.44;;;17.68;50.00
55317;BME280;41178;48.956;8.130;2023-06-24T05:12:00;100678.97;;;17.57;50.95
55317;BME280;41178;48.956;8.130;2023-06-24T05:17:05;100710.78;;;17.02;51.88
55317;BME280;41178;48.956;8.130;2023-06-24T05:22:08;100705.44;;;17.82;50.64
55317;BME280;41178;48.956;8.130;2023-06-24T05:27:10;100683.75;;;17.62;51.65
55317;BME280;41178;48.956;8.130;2023-06-24T05:32:12;100705.22;;;17.43;51.96
55317;BME280;41178;48.956;8.130;2023-06-24T05:37:14;100685.13;;;16.77;54.24
55317;BME280;41178;48.956;8.130;2023-06-24T05:42:16;100740.19;;;16.28;55.18
55317;BME280;41178;48.956;8.130;2023-06-24T05:47:18;100682.91;;;17.61;53.07
55317;BME280;41178;48.956;8.130;2023-06-24T05:52:20;100636.97;;;18.20;52.38
55317;BME280;41178;48.956;8.130;2023-06-24T05:57:21;100716.84;;;17.57;53.23
55317;BME280;41178;48.956;8.130;2023-06-24T06:02:23;100681.84;;;19.56;50.34
55317;BME280;41178;48.956;8.130;2023-06-24T06:07:25;100709.50;;;19.90;49.10
55317;BME280;41178;48.956;8.130;2023-06-24T06:12:27;100710.41;;;20.46;48.07
55317;BME280;41178;48.956;8.130;2023-06-24T06:17:29;100760.13;;;20.84;46.98
55317;BME280;41178;48.956;8.130;2023-06-24T06:22:30;100798.41;;;20.27;46.84
55317;BME280;41178;48.956;8.130;2023-06-24T06:27:33;100783.41;;;20.80;46.11
55317;BME280;41178;48.956;8.130;2023-06-24T06:32:35;100754.19;;;20.57;47.05
55317;BME280;41178;48.956;8.130;2023-06-24T06:37:37;100754.56;;;20.60;46.52
55317;BME280;41178;48.956;8.130;2023-06-24T06:42:39;100832.84;;;19.83;47.83
55317;BME280;41178;48.956;8.130;2023-06-24T06:47:40;100845.56;;;19.18;48.54
55317;BME280;41178;48.956;8.130;2023-06-24T06:52:42;100774.13;;;19.25;49.67
55317;BME280;41178;48.956;8.130;2023-06-24T06:57:44;100708.94;;;20.93;46.83
55317;BME280;41178;48.956;8.130;2023-06-24T07:02:46;100737.75;;;21.42;45.94
55317;BME280;41178;48.956;8.130;2023-06-24T07:07:48;100780.03;;;19.47;49.13
55317;BME280;41178;48.956;8.130;2023-06-24T07:12:52;100797.91;;;20.11;47.77
55317;BME280;41178;48.956;8.130;2023-06-24T07:17:59;100785.81;;;20.33;47.76
55317;BME280;41178;48.956;8.130;2023-06-24T07:23:01;100775.63;;;20.46;47.39
55317;BME280;41178;48.956;8.130;2023-06-24T07:28:04;100743.13;;;20.70;47.17
55317;BME280;41178;48.956;8.130;2023-06-24T07:33:07;100785.91;;;21.12;45.78
55317;BME280;41178;48.956;8.130;2023-06-24T07:38:09;100730.91;;;23.55;43.05
55317;BME280;41178;48.956;8.130;2023-06-24T07:43:11;100743.81;;;21.92;45.30
55317;BME280;41178;48.956;8.130;2023-06-24T07:48:13;100736.56;;;22.21;44.43
55317;BME280;41178;48.956;8.130;2023-06-24T07:53:14;100731.69;;;23.16;42.91
55317;BME280;41178;48.956;8.130;2023-06-24T07:58:16;100791.00;;;22.80;43.48
55317;BME280;41178;48.956;8.130;2023-06-24T08:03:18;100783.03;;;22.03;43.75
55317;BME280;41178;48.956;8.130;2023-06-24T08:08:20;100790.81;;;21.75;44.54
55317;BME280;41178;48.956;8.130;2023-06-24T08:13:22;100746.38;;;24.39;40.70
55317;BME280;41178;48.956;8.130;2023-06-24T08:18:24;100746.50;;;25.21;39.76
55317;BME280;41178;48.956;8.130;2023-06-24T08:23:25;100738.13;;;23.27;42.53
55317;BME280;41178;48.956;8.130;2023-06-24T08:28:27;100746.28;;;25.00;40.44
55317;BME280;41178;48.956;8.130;2023-06-24T08:33:29;100777.72;;;22.72;41.34
55317;BME280;41178;48.956;8.130;2023-06-24T08:38:30;100734.34;;;23.28;41.33
55317;BME280;41178;48.956;8.130;2023-06-24T08:43:32;100695.75;;;24.86;40.13
55317;BME280;41178;48.956;8.130;2023-06-24T08:48:35;100715.84;;;24.97;39.97
55317;BME280;41178;48.956;8.130;2023-06-24T08:53:43;100756.94;;;24.74;38.00
55317;BME280;41178;48.956;8.130;2023-06-24T08:58:47;100773.09;;;24.76;38.28
55317;BME280;41178;48.956;8.130;2023-06-24T09:03:49;100774.13;;;25.19;34.58
55317;BME280;41178;48.956;8.130;2023-06-24T09:08:53;100788.38;;;24.50;35.33
55317;BME280;41178;48.956;8.130;2023-06-24T09:13:59;100753.28;;;25.18;34.78
55317;BME280;41178;48.956;8.130;2023-06-24T09:19:01;100718.81;;;25.92;35.29
55317;BME280;41178;48.956;8.130;2023-06-24T09:24:03;100716.28;;;25.80;35.06
55317;BME280;41178;48.956;8.130;2023-06-24T09:29:06;100737.09;;;25.76;35.24
55317;BME280;41178;48.956;8.130;2023-06-24T09:34:12;100703.00;;;24.48;36.11
55317;BME280;41178;48.956;8.130;2023-06-24T09:39:15;100672.50;;;25.96;33.41
55317;BME280;41178;48.956;8.130;2023-06-24T09:44:30;100664.44;;;25.74;35.40
55317;BME280;41178;48.956;8.130;2023-06-24T09:49:33;100678.31;;;25.62;34.79
55317;BME280;41178;48.956;8.130;2023-06-24T09:54:35;100636.47;;;26.40;34.49
55317;BME280;41178;48.956;8.130;2023-06-24T09:59:38;100633.19;;;26.38;34.07
55317;BME280;41178;48.956;8.130;2023-06-24T10:04:41;100606.63;;;26.85;33.53
55317;BME280;41178;48.956;8.130;2023-06-24T10:09:44;100619.56;;;26.74;33.65
55317;BME280;41178;48.956;8.130;2023-06-24T10:14:46;100615.97;;;27.20;32.97
55317;BME280;41178;48.956;8.130;2023-06-24T10:19:51;100635.22;;;27.04;32.25
55317;BME280;41178;48.956;8.130;2023-06-24T10:24:53;100609.38;;;26.74;31.97
55317;BME280;41178;48.956;8.130;2023-06-24T10:30:02;100600.88;;;26.81;32.98
55317;BME280;41178;48.956;8.130;2023-06-24T10:35:05;100579.16;;;27.26;32.97
55317;BME280;41178;48.956;8.130;2023-06-24T10:40:08;100579.63;;;26.15;34.41
55317;BME280;41178;48.956;8.130;2023-06-24T10:45:14;100555.25;;;27.16;33.19
55317;BME280;41178;48.956;8.130;2023-06-24T10:50:19;100577.25;;;26.75;32.99
55317;BME280;41178;48.956;8.130;2023-06-24T10:55:25;100558.13;;;27.66;32.32
55317;BME280;41178;48.956;8.130;2023-06-24T11:06:22;100537.06;;;25.92;33.71
55317;BME280;41178;48.956;8.130;2023-06-24T11:11:23;100528.97;;;26.79;33.58
55317;BME280;41178;48.956;8.130;2023-06-24T11:16:25;100529.94;;;26.06;34.13
55317;BME280;41178;48.956;8.130;2023-06-24T11:21:30;100528.13;;;26.73;33.23
55317;BME280;41178;48.956;8.130;2023-06-24T11:26:33;100514.41;;;26.73;32.87
55317;BME280;41178;48.956;8.130;2023-06-24T11:31:34;100503.97;;;26.91;33.52
55317;BME280;41178;48.956;8.130;2023-06-24T11:36:37;100495.81;;;27.51;32.37
55317;BME280;41178;48.956;8.130;2023-06-24T11:41:39;100505.88;;;26.60;33.15
55317;BME280;41178;48.956;8.130;2023-06-24T11:46:41;100515.50;;;26.78;32.48
55317;BME280;41178;48.956;8.130;2023-06-24T11:51:50;100464.13;;;28.48;33.11
55317;BME280;41178;48.956;8.130;2023-06-24T11:56:52;100501.81;;;25.47;32.92
55317;BME280;41178;48.956;8.130;2023-06-24T12:01:57;100478.34;;;27.81;31.39
55317;BME280;41178;48.956;8.130;2023-06-24T12:06:59;100473.72;;;27.77;32.81
55317;BME280;41178;48.956;8.130;2023-06-24T12:12:01;100490.34;;;27.41;30.90
55317;BME280;41178;48.956;8.130;2023-06-24T12:17:03;100497.28;;;27.33;31.06
55317;BME280;41178;48.956;8.130;2023-06-24T12:22:05;100486.31;;;27.18;32.24
55317;BME280;41178;48.956;8.130;2023-06-24T12:27:07;100487.22;;;26.77;31.78
55317;BME280;41178;48.956;8.130;2023-06-24T12:32:10;100454.81;;;27.60;31.72
55317;BME280;41178;48.956;8.130;2023-06-24T12:37:12;100458.75;;;27.93;31.63
55317;BME280;41178;48.956;8.130;2023-06-24T12:42:13;100428.81;;;27.86;31.52
55317;BME280;41178;48.956;8.130;2023-06-24T12:47:15;100463.84;;;27.65;31.12
55317;BME280;41178;48.956;8.130;2023-06-24T12:52:17;100426.56;;;27.99;31.25
55317;BME280;41178;48.956;8.130;2023-06-24T12:57:19;100433.19;;;27.93;31.46
55317;BME280;41178;48.956;8.130;2023-06-24T13:02:21;100432.81;;;27.70;30.62
55317;BME280;41178;48.956;8.130;2023-06-24T13:07:23;100415.69;;;27.83;31.74
55317;BME280;41178;48.956;8.130;2023-06-24T13:12:25;100426.84;;;26.56;31.73
55317;BME280;41178;48.956;8.130;2023-06-24T13:17:26;100405.31;;;28.39;30.46
55317;BME280;41178;48.956;8.130;2023-06-24T13:22:28;100433.06;;;27.74;30.75
55317;BME280;41178;48.956;8.130;2023-06-24T13:27:30;100419.75;;;27.86;30.76
55317;BME280;41178;48.956;8.130;2023-06-24T13:32:32;100426.69;;;27.78;31.67
55317;BME280;41178;48.956;8.130;2023-06-24T13:37:34;100407.16;;;28.19;31.54
55317;BME280;41178;48.956;8.130;2023-06-24T13:42:35;100386.28;;;28.72;30.46
55317;BME280;41178;48.956;8.130;2023-06-24T13:47:37;100391.75;;;28.18;30.62
55317;BME280;41178;48.956;8.130;2023-06-24T13:52:39;100405.41;;;27.49;30.62
55317;BME280;41178;48.956;8.130;2023-06-24T13:57:41;100398.09;;;28.19;30.36
55317;BME280;41178;48.956;8.130;2023-06-24T14:02:42;100403.00;;;28.17;30.00
55317;BME280;41178;48.956;8.130;2023-06-24T14:07:45;100402.56;;;27.65;30.58
55317;BME280;41178;48.956;8.130;2023-06-24T14:12:46;100366.53;;;27.72;30.51
55317;BME280;41178;48.956;8.130;2023-06-24T14:17:48;100364.69;;;28.55;30.47
55317;BME280;41178;48.956;8.130;2023-06-24T14:22:51;100396.00;;;27.61;30.26
55317;BME280;41178;48.956;8.130;2023-06-24T14:27:52;100387.13;;;27.69;29.98
55317;BME280;41178;48.956;8.130;2023-06-24T14:32:54;100374.97;;;27.85;30.61
55317;BME280;41178;48.956;8.130;2023-06-24T14:37:56;100375.34;;;27.68;30.98
55317;BME280;41178;48.956;8.130;2023-06-24T14:42:58;100346.28;;;28.50;29.75
55317;BME280;41178;48.956;8.130;2023-06-24T14:48:00;100358.84;;;27.24;30.61
55317;BME280;41178;48.956;8.130;2023-06-24T14:53:03;100367.72;;;27.55;30.82
55317;BME280;41178;48.956;8.130;2023-06-24T14:58:05;100330.72;;;28.40;29.94
55317;BME280;41178;48.956;8.130;2023-06-24T15:03:07;100344.19;;;27.83;30.00
55317;BME280;41178;48.956;8.130;2023-06-24T15:08:09;100342.31;;;28.86;28.33
55317;BME280;41178;48.956;8.130;2023-06-24T15:13:11;100358.59;;;27.65;30.29
55317;BME280;41178;48.956;8.130;2023-06-24T15:18:13;100354.97;;;27.69;30.57
55317;BME280;41178;48.956;8.130;2023-06-24T15:23:16;100313.44;;;28.59;30.14
55317;BME280;41178;48.956;8.130;2023-06-24T15:28:18;100314.81;;;27.79;30.65
55317;BME280;41178;48.956;8.130;2023-06-24T15:33:20;100311.41;;;27.53;29.86
55317;BME280;41178;48.956;8.130;2023-06-24T15:38:22;100322.81;;;28.04;29.70
55317;BME280;41178;48.956;8.130;2023-06-24T15:43:23;100304.50;;;28.72;29.80
55317;BME280;41178;48.956;8.130;2023-06-24T15:48:25;100292.31;;;28.97;29.49
55317;BME280;41178;48.956;8.130;2023-06-24T15:53:27;100299.09;;;29.05;30.24
55317;BME280;41178;48.956;8.130;2023-06-24T15:58:31;100298.69;;;29.17;29.87
55317;BME280;41178;48.956;8.130;2023-06-24T16:03:33;100321.28;;;28.47;30.05
55317;BME280;41178;48.956;8.130;2023-06-24T16:08:35;100329.78;;;27.57;30.02
55317;BME280;41178;48.956;8.130;2023-06-24T16:13:37;100298.63;;;28.01;29.83
55317;BME280;41178;48.956;8.130;2023-06-24T16:18:39;100289.56;;;28.97;28.83
55317;BME280;41178;48.956;8.130;2023-06-24T16:23:41;100288.31;;;28.66;29.57
55317;BME280;41178;48.956;8.130;2023-06-24T16:28:43;100303.97;;;28.17;30.09
55317;BME280;41178;48.956;8.130;2023-06-24T16:33:44;100289.03;;;28.76;29.21
55317;BME280;41178;48.956;8.130;2023-06-24T16:38:46;100297.06;;;28.73;29.22
55317;BME280;41178;48.956;8.130;2023-06-24T16:43:48;100301.94;;;29.19;29.21
55317;BME280;41178;48.956;8.130;2023-06-24T16:48:50;100284.44;;;27.55;29.50
55317;BME280;41178;48.956;8.130;2023-06-24T16:53:51;100300.72;;;28.39;28.97
55317;BME280;41178;48.956;8.130;2023-06-24T16:58:53;100294.09;;;28.88;29.31
55317;BME280;41178;48.956;8.130;2023-06-24T17:03:55;100295.28;;;28.82;29.06
55317;BME280;41178;48.956;8.130;2023-06-24T17:08:57;100289.09;;;29.09;28.49
55317;BME280;41178;48.956;8.130;2023-06-24T17:13:59;100299.84;;;28.92;29.56
55317;BME280;41178;48.956;8.130;2023-06-24T17:19:01;100299.00;;;28.91;29.42
55317;BME280;41178;48.956;8.130;2023-06-24T17:24:03;100288.56;;;29.12;29.03
55317;BME280;41178;48.956;8.130;2023-06-24T17:29:06;100279.56;;;28.10;29.21
55317;BME280;41178;48.956;8.130;2023-06-24T17:34:09;100272.53;;;29.14;29.11
55317;BME280;41178;48.956;8.130;2023-06-24T17:39:11;100290.03;;;29.24;29.28
55317;BME280;41178;48.956;8.130;2023-06-24T17:44:13;100276.22;;;28.13;30.67
55317;BME280;41178;48.956;8.130;2023-06-24T17:49:14;100277.88;;;28.63;30.12
55317;BME280;41178;48.956;8.130;2023-06-24T17:54:16;100258.31;;;27.28;31.47
55317;BME280;41178;48.956;8.130;2023-06-24T17:59:18;100277.44;;;28.02;31.01
55317;BME280;41178;48.956;8.130;2023-06-24T18:04:20;100250.94;;;27.87;30.62
55317;BME280;41178;48.956;8.130;2023-06-24T18:09:22;100246.25;;;27.58;31.33
55317;BME280;41178;48.956;8.130;2023-06-24T18:14:23;100246.38;;;28.31;30.60
55317;BME280;41178;48.956;8.130;2023-06-24T18:19:25;100235.47;;;28.45;30.79
55317;BME280;41178;48.956;8.130;2023-06-24T18:24:27;100257.66;;;27.36;32.04
55317;BME280;41178;48.956;8.130;2023-06-24T18:29:29;100260.00;;;27.13;32.01
55317;BME280;41178;48.956;8.130;2023-06-24T18:34:31;100232.22;;;27.89;31.69
55317;BME280;41178;48.956;8.130;2023-06-24T18:39:32;100232.28;;;27.84;31.91
55317;BME280;41178;48.956;8.130;2023-06-24T18:44:34;100255.59;;;27.12;32.39
55317;BME280;41178;48.956;8.130;2023-06-24T18:49:36;100261.28;;;26.82;32.60
55317;BME280;41178;48.956;8.130;2023-06-24T18:54:38;100260.69;;;27.40;32.17
55317;BME280;41178;48.956;8.130;2023-06-24T18:59:41;100245.09;;;25.84;33.75
55317;BME280;41178;48.956;8.130;2023-06-24T19:04:43;100244.97;;;27.45;32.57
55317;BME280;41178;48.956;8.130;2023-06-24T19:09:45;100230.47;;;27.40;32.75
55317;BME280;41178;48.956;8.130;2023-06-24T19:14:47;100238.25;;;26.83;33.19
55317;BME280;41178;48.956;8.130;2023-06-24T19:19:49;100232.69;;;27.96;32.28
55317;BME280;41178;48.956;8.130;2023-06-24T19:24:51;100248.16;;;26.68;33.17
55317;BME280;41178;48.956;8.130;2023-06-24T19:29:53;100249.72;;;25.17;34.91
55317;BME280;41178;48.956;8.130;2023-06-24T19:34:54;100222.78;;;27.66;32.27
55317;BME280;41178;48.956;8.130;2023-06-24T19:39:57;100261.28;;;25.91;33.35
55317;BME280;41178;48.956;8.130;2023-06-24T19:44:59;100225.56;;;26.32;33.59
55317;BME280;41178;48.956;8.130;2023-06-24T19:50:01;100257.97;;;25.94;33.76
55317;BME280;41178;48.956;8.130;2023-06-24T19:55:03;100231.56;;;27.39;32.33
55317;BME280;41178;48.956;8.130;2023-06-24T20:00:06;100274.19;;;25.75;34.10
55317;BME280;41178;48.956;8.130;2023-06-24T20:05:08;100257.50;;;27.17;32.78
55317;BME280;41178;48.956;8.130;2023-06-24T20:10:10;100258.41;;;26.52;33.79
55317;BME280;41178;48.956;8.130;2023-06-24T20:15:12;100254.88;;;24.92;34.69
55317;BME280;41178;48.956;8.130;2023-06-24T20:20:15;100267.03;;;25.53;34.25
55317;BME280;41178;48.956;8.130;2023-06-24T20:25:17;100255.69;;;24.93;34.60
55317;BME280;41178;48.956;8.130;2023-06-24T20:30:18;100238.91;;;24.11;35.60
55317;BME280;41178;48.956;8.130;2023-06-24T20:35:20;100243.47;;;25.21;34.54
55317;BME280;41178;48.956;8.130;2023-06-24T20:40:22;100257.72;;;25.54;34.06
55317;BME280;41178;48.956;8.130;2023-06-24T20:45:24;100246.50;;;25.76;34.18
55317;BME280;41178;48.956;8.130;2023-06-24T20:50:26;100279.56;;;25.13;34.63
55317;BME280;41178;48.956;8.130;2023-06-24T20:55:27;100244.84;;;25.34;34.53
55317;BME280;41178;48.956;8.130;2023-06-24T21:00:29;100261.25;;;26.01;33.74
55317;BME280;41178;48.956;8.130;2023-06-24T21:05:31;100265.09;;;25.69;34.05
55317;BME280;41178;48.956;8.130;2023-06-24T21:10:33;100281.63;;;24.22;35.06
55317;BME280;41178;48.956;8.130;2023-06-24T21:15:35;100239.38;;;25.34;34.58
55317;BME280;41178;48.956;8.130;2023-06-24T21:20:38;100250.34;;;25.75;34.02
55317;BME280;41178;48.956;8.130;2023-06-24T21:25:40;100255.63;;;23.50;36.48
55317;BME280;41178;48.956;8.130;2023-06-24T21:30:42;100225.38;;;24.31;35.92
55317;BME280;41178;48.956;8.130;2023-06-24T21:35:44;100227.75;;;24.81;35.30
55317;BME280;41178;48.956;8.130;2023-06-24T21:41:01;100264.16;;;23.26;37.06
55317;BME280;41178;48.956;8.130;2023-06-24T21:46:03;100248.06;;;23.89;36.66
55317;BME280;41178;48.956;8.130;2023-06-24T21:51:05;100216.00;;;24.22;36.29
55317;BME280;41178;48.956;8.130;2023-06-24T21:56:07;100228.13;;;25.87;34.77
55317;BME280;41178;48.956;8.130;2023-06-24T22:01:09;100242.66;;;25.31;35.24
55317;BME280;41178;48.956;8.130;2023-06-24T22:06:11;100259.31;;;24.41;35.92
55317;BME280;41178;48.956;8.130;2023-06-24T22:11:13;100255.38;;;22.97;38.14
55317;BME280;41178;48.956;8.130;2023-06-24T22:16:16;100244.09;;;23.70;37.42
55317;BME280;41178;48.956;8.130;2023-06-24T22:21:18;100228.84;;;24.16;36.66
55317;BME280;41178;48.956;8.130;2023-06-24T22:26:20;100224.38;;;24.10;37.26
55317;BME280;41178;48.956;8.130;2023-06-24T22:31:22;100230.84;;;23.24;38.09
55317;BME280;41178;48.956;8.130;2023-06-24T22:36:24;100235.81;;;22.78;38.78
55317;BME280;41178;48.956;8.130;2023-06-24T22:41:26;100246.16;;;22.37;38.83
55317;BME280;41178;48.956;8.130;2023-06-24T22:46:28;100210.53;;;23.74;37.40
55317;BME280;41178;48.956;8.130;2023-06-24T22:51:30;100245.28;;;23.52;37.62
55317;BME280;41178;48.956;8.130;2023-06-24T22:56:32;100212.06;;;22.78;38.97
55317;BME280;41178;48.956;8.130;2023-06-24T23:01:34;100220.03;;;21.96;40.11
55317;BME280;41178;48.956;8.130;2023-06-24T23:06:36;100223.22;;;21.14;41.67
55317;BME280;41178;48.956;8.130;2023-06-24T23:11:38;100152.88;;;22.79;39.68
55317;BME280;41178;48.956;8.130;2023-06-24T23:16:40;100163.63;;;22.63;39.87
55317;BME280;41178;48.956;8.130;2023-06-24T23:21:42;100216.34;;;21.23;42.29
55317;BME280;41178;48.956;8.130;2023-06-24T23:26:44;100162.75;;;21.40;42.69
55317;BME280;41178;48.956;8.130;2023-06-24T23:31:52;100115.72;;;21.62;42.29
55317;BME280;41178;48.956;8.130;2023-06-24T23:36:54;100197.97;;;20.73;42.60
55317;BME280;41178;48.956;8.130;2023-06-24T23:41:57;100116.44;;;22.63;40.12
55317;BME280;41178;48.956;8.130;2023-06-24T23:46:59;100173.78;;;21.17;42.51
55317;BME280;41178;48.956;8.130;2023-06-24T23:52:01;100173.25;;;20.74;43.67
55317;BME280;41178;48.956;8.130;2023-06-24T23:57:03;100151.03;;;21.23;43.31
